createdAt,value
2023-03-31T00:00:02.332Z,100136.47
2023-03-31T00:03:10.296Z,100132.91
2023-03-31T00:06:17.996Z,100129.63
2023-03-31T00:09:22.196Z,100134.00
2023-03-31T00:12:24.931Z,100128.25
2023-03-31T00:15:29.880Z,100129.63
2023-03-31T00:18:33.154Z,100126.06
2023-03-31T00:21:36.940Z,100120.03
2023-03-31T00:24:39.808Z,100117.00
2023-03-31T00:27:44.121Z,100112.34
2023-03-31T00:30:48.474Z,100099.72
2023-03-31T00:33:51.520Z,100104.13
2023-03-31T00:36:56.328Z,100099.47
2023-03-31T00:39:59.318Z,100102.75
2023-03-31T00:43:03.094Z,100102.47
2023-03-31T00:46:15.693Z,100093.69
2023-03-31T00:49:24.441Z,100095.31
2023-03-31T00:52:35.583Z,100094.22
2023-03-31T00:55:43.262Z,100087.38
2023-03-31T00:58:47.249Z,100090.94
2023-03-31T01:01:52.852Z,100097.25
2023-03-31T01:05:02.206Z,100073.94
2023-03-31T01:08:06.768Z,100078.84
2023-03-31T01:11:13.152Z,100077.50
2023-03-31T01:14:16.061Z,100068.16
2023-03-31T01:17:22.408Z,100062.13
2023-03-31T01:20:38.151Z,100061.03
2023-03-31T01:24:02.521Z,100048.69
2023-03-31T01:27:29.886Z,100045.13
2023-03-31T01:31:08.468Z,100036.06
2023-03-31T01:34:56.770Z,100040.72
2023-03-31T01:38:42.277Z,100036.88
2023-03-31T01:41:57.551Z,100037.97
2023-03-31T01:45:09.083Z,100038.25
2023-03-31T01:48:18.062Z,100019.31
2023-03-31T01:51:30.462Z,100019.59
2023-03-31T01:54:40.373Z,100028.59
2023-03-31T01:57:51.929Z,100023.66
2023-03-31T02:01:02.090Z,100016.28
2023-03-31T02:04:11.036Z,100013.53
2023-03-31T02:07:17.993Z,100005.00
2023-03-31T02:10:23.012Z,100009.94
2023-03-31T02:13:30.247Z,100015.19
2023-03-31T02:16:37.870Z,100016.00
2023-03-31T02:19:45.378Z,100005.03
2023-03-31T02:22:52.145Z,100003.09
2023-03-31T02:26:01.021Z,100002.00
2023-03-31T02:29:05.202Z,100006.66
2023-03-31T02:32:15.162Z,100004.22
2023-03-31T02:35:21.686Z,100006.41
2023-03-31T02:38:24.458Z,99997.09
2023-03-31T02:41:27.492Z,99987.78
2023-03-31T02:44:31.778Z,99982.00
2023-03-31T02:47:35.686Z,99975.97
2023-03-31T02:50:52.484Z,99975.72
2023-03-31T02:54:16.909Z,99978.47
2023-03-31T02:57:49.058Z,99970.25
2023-03-31T03:01:08.616Z,99964.50
2023-03-31T03:04:27.782Z,99961.75
2023-03-31T03:07:38.645Z,99959.84
2023-03-31T03:10:56.835Z,99955.72
2023-03-31T03:14:06.656Z,99951.34
2023-03-31T03:17:16.112Z,99944.78
2023-03-31T03:20:21.204Z,99947.78
2023-03-31T03:23:23.958Z,99941.22
2023-03-31T03:26:28.291Z,99941.19
2023-03-31T03:29:31.147Z,99942.03
2023-03-31T03:32:35.729Z,99931.06
2023-03-31T03:35:38.656Z,99928.88
2023-03-31T03:38:41.442Z,99926.38
2023-03-31T03:41:44.229Z,99931.31
2023-03-31T03:44:47.319Z,99918.19
2023-03-31T03:47:51.369Z,99917.38
2023-03-31T03:50:55.235Z,99918.44
2023-03-31T03:53:57.937Z,99912.69
2023-03-31T03:57:00.910Z,99905.78
2023-03-31T04:00:08.017Z,99903.56
2023-03-31T04:03:12.147Z,99893.75
2023-03-31T04:06:15.004Z,99891.84
2023-03-31T04:09:17.791Z,99886.06
2023-03-31T04:12:20.516Z,99894.56
2023-03-31T04:15:23.270Z,99889.38
2023-03-31T04:18:27.333Z,99887.44
2023-03-31T04:21:30.839Z,99886.63
2023-03-31T04:24:33.916Z,99884.16
2023-03-31T04:27:36.774Z,99867.16
2023-03-31T04:30:39.754Z,99879.22
2023-03-31T04:33:46.295Z,99865.22
2023-03-31T04:36:49.408Z,99864.69
2023-03-31T04:39:54.599Z,99856.72
2023-03-31T04:42:57.522Z,99856.72
2023-03-31T04:46:00.279Z,99857.84
2023-03-31T04:49:05.917Z,99851.22
2023-03-31T04:52:08.742Z,99847.66
2023-03-31T04:55:11.856Z,99846.28
2023-03-31T04:58:14.691Z,99841.38
2023-03-31T05:01:18.290Z,99833.69
2023-03-31T05:04:22.746Z,99821.91
2023-03-31T05:07:25.560Z,99824.34
2023-03-31T05:10:28.380Z,99829.53
2023-03-31T05:13:31.638Z,99822.41
2023-03-31T05:16:34.688Z,99814.19
2023-03-31T05:19:39.018Z,99803.22
2023-03-31T05:22:43.789Z,99801.59
2023-03-31T05:25:46.874Z,99804.63
2023-03-31T05:28:49.588Z,99807.06
2023-03-31T05:31:53.925Z,99807.34
2023-03-31T05:34:58.214Z,99801.34
2023-03-31T05:38:00.944Z,99791.44
2023-03-31T05:41:03.785Z,99792.22
2023-03-31T05:44:06.549Z,99788.09
2023-03-31T05:47:09.431Z,99791.59
2023-03-31T05:50:14.766Z,99782.19
2023-03-31T05:53:17.800Z,99775.78
2023-03-31T05:56:21.697Z,99777.69
2023-03-31T05:59:24.431Z,99772.16
2023-03-31T06:02:27.600Z,99762.78
2023-03-31T06:05:32.467Z,99769.63
2023-03-31T06:08:35.301Z,99757.81
2023-03-31T06:11:38.134Z,99753.16
2023-03-31T06:14:40.826Z,99746.56
2023-03-31T06:17:43.766Z,99754.94
2023-03-31T06:20:47.842Z,99743.88
2023-03-31T06:23:55.004Z,99737.88
2023-03-31T06:26:57.841Z,99740.78
2023-03-31T06:30:00.528Z,99737.31
2023-03-31T06:33:03.297Z,99728.91
2023-03-31T06:36:08.595Z,99725.06
2023-03-31T06:39:11.582Z,99728.66
2023-03-31T06:42:15.238Z,99726.06
2023-03-31T06:45:18.170Z,99730.81
2023-03-31T06:48:21.537Z,99724.28
2023-03-31T06:51:25.705Z,99724.50
2023-03-31T06:54:28.551Z,99724.81
2023-03-31T06:57:33.420Z,99714.00
2023-03-31T07:00:36.444Z,99703.75
2023-03-31T07:03:39.387Z,99707.38
2023-03-31T07:06:43.586Z,99709.25
2023-03-31T07:09:46.685Z,99702.00
2023-03-31T07:12:49.541Z,99689.09
2023-03-31T07:15:52.429Z,99693.81
2023-03-31T07:18:59.481Z,99687.31
2023-03-31T07:22:03.576Z,99677.91
2023-03-31T07:25:07.097Z,99680.97
2023-03-31T07:28:09.839Z,99674.06
2023-03-31T07:31:13.585Z,99681.56
2023-03-31T07:34:16.480Z,99676.56
2023-03-31T07:37:20.624Z,99678.31
2023-03-31T07:40:26.137Z,99686.75
2023-03-31T07:43:29.028Z,99680.25
2023-03-31T07:46:31.880Z,99670.13
2023-03-31T07:49:35.661Z,99667.06
2023-03-31T07:52:44.142Z,99668.06
2023-03-31T07:55:48.401Z,99664.75
2023-03-31T07:58:54.450Z,99656.00
2023-03-31T08:01:58.925Z,99656.25
2023-03-31T08:05:02.100Z,99644.69
2023-03-31T08:08:06.225Z,99643.72
2023-03-31T08:11:09.103Z,99646.13
2023-03-31T08:14:11.923Z,99640.72
2023-03-31T08:17:14.622Z,99637.91
2023-03-31T08:20:17.608Z,99624.91
2023-03-31T08:23:21.733Z,99626.84
2023-03-31T08:26:25.655Z,99623.50
2023-03-31T08:29:28.376Z,99622.06
2023-03-31T08:32:32.162Z,99616.97
2023-03-31T08:35:34.907Z,99614.81
2023-03-31T08:38:41.614Z,99601.41
2023-03-31T08:41:52.090Z,99607.84
2023-03-31T08:45:01.118Z,99593.31
2023-03-31T08:48:07.980Z,99591.53
2023-03-31T08:51:17.211Z,99591.38
2023-03-31T08:54:31.373Z,99590.88
2023-03-31T08:57:41.539Z,99585.44
2023-03-31T09:00:52.174Z,99580.84
2023-03-31T09:04:14.105Z,99575.03
2023-03-31T09:07:26.297Z,99572.09
2023-03-31T09:10:42.757Z,99564.13
2023-03-31T09:14:13.859Z,99563.34
2023-03-31T09:17:21.563Z,99551.59
2023-03-31T09:20:31.456Z,99560.69
2023-03-31T09:23:39.469Z,99557.75
2023-03-31T09:26:48.695Z,99545.84
2023-03-31T09:29:57.014Z,99539.47
2023-03-31T09:33:12.233Z,99534.09
2023-03-31T09:36:17.865Z,99532.13
2023-03-31T09:39:20.907Z,99533.09
2023-03-31T09:42:25.057Z,99521.88
2023-03-31T09:45:30.759Z,99512.59
2023-03-31T09:48:37.101Z,99513.78
2023-03-31T09:51:44.995Z,99505.63
2023-03-31T09:54:51.152Z,99502.41
2023-03-31T09:57:55.282Z,99496.69
2023-03-31T10:01:01.778Z,99491.69
2023-03-31T10:04:10.095Z,99484.34
2023-03-31T10:07:13.733Z,99482.41
2023-03-31T10:10:28.249Z,99487.47
2023-03-31T10:13:41.473Z,99480.94
2023-03-31T10:16:47.199Z,99478.78
2023-03-31T10:19:52.836Z,99459.66
2023-03-31T10:22:55.596Z,99456.34
2023-03-31T10:25:59.400Z,99452.91
2023-03-31T10:29:03.704Z,99441.63
2023-03-31T10:32:13.219Z,99451.97
2023-03-31T10:35:25.089Z,99459.56
2023-03-31T10:38:31.232Z,99452.34
2023-03-31T10:41:34.747Z,99447.44
2023-03-31T10:44:40.444Z,99445.56
2023-03-31T10:47:43.409Z,99442.41
2023-03-31T10:50:46.433Z,99434.56
2023-03-31T10:53:51.220Z,99424.25
2023-03-31T10:56:57.326Z,99427.53
2023-03-31T11:00:15.098Z,99423.19
2023-03-31T11:03:36.327Z,99421.28
2023-03-31T11:06:50.586Z,99413.47
2023-03-31T11:10:11.860Z,99418.38
2023-03-31T11:13:22.768Z,99414.66
2023-03-31T11:16:35.175Z,99413.00
2023-03-31T11:19:46.867Z,99406.22
2023-03-31T11:23:00.114Z,99389.09
2023-03-31T11:26:08.472Z,99385.19
2023-03-31T11:29:27.491Z,99384.97
2023-03-31T11:32:45.130Z,99379.09
2023-03-31T11:36:00.261Z,99364.19
2023-03-31T11:39:16.344Z,99360.59
2023-03-31T11:42:22.558Z,99353.16
2023-03-31T11:45:30.621Z,99342.72
2023-03-31T11:48:42.129Z,99341.97
2023-03-31T11:51:52.242Z,99331.31
2023-03-31T11:55:01.479Z,99324.38
2023-03-31T11:58:11.134Z,99328.59
2023-03-31T12:01:21.886Z,99320.47
2023-03-31T12:04:34.764Z,99325.69
2023-03-31T12:07:42.970Z,99325.47
2023-03-31T12:10:49.647Z,99328.59
2023-03-31T12:13:59.941Z,99317.81
2023-03-31T12:17:10.534Z,99323.31
2023-03-31T12:20:20.739Z,99320.63
2023-03-31T12:23:28.221Z,99311.19
2023-03-31T12:26:40.082Z,99312.72
2023-03-31T12:29:46.792Z,99314.72
2023-03-31T12:32:54.865Z,99300.66
2023-03-31T12:36:18.168Z,99287.59
2023-03-31T12:39:35.726Z,99291.66
2023-03-31T12:42:54.180Z,99278.34
2023-03-31T12:46:09.968Z,99275.28
2023-03-31T12:49:44.873Z,99268.13
2023-03-31T12:52:58.655Z,99268.44
2023-03-31T12:56:01.575Z,99264.53
2023-03-31T12:59:20.006Z,99266.34
2023-03-31T13:02:26.197Z,99253.78
2023-03-31T13:05:47.301Z,99256.97
2023-03-31T13:08:54.494Z,99250.59
2023-03-31T13:11:57.297Z,99258.81
2023-03-31T13:15:00.676Z,99258.59
2023-03-31T13:18:05.483Z,99254.13
2023-03-31T13:21:09.351Z,99255.97
2023-03-31T13:24:14.816Z,99258.53
2023-03-31T13:27:34.512Z,99259.22
2023-03-31T13:31:08.442Z,99256.97
2023-03-31T13:34:11.202Z,99256.38
2023-03-31T13:37:22.436Z,99251.03
2023-03-31T13:40:50.255Z,99250.81
2023-03-31T13:44:29.504Z,99248.41
2023-03-31T13:47:58.679Z,99249.84
2023-03-31T13:51:31.062Z,99249.81
2023-03-31T13:54:54.452Z,99240.56
2023-03-31T13:58:34.373Z,99230.44
2023-03-31T14:02:04.565Z,99243.31
2023-03-31T14:05:22.515Z,99242.59
2023-03-31T14:08:37.841Z,99238.22
2023-03-31T14:11:40.744Z,99242.09
2023-03-31T14:14:45.145Z,99246.47
2023-03-31T14:17:48.434Z,99250.94
2023-03-31T14:21:05.752Z,99245.34
2023-03-31T14:24:19.207Z,99245.13
2023-03-31T14:27:39.779Z,99247.09
2023-03-31T14:30:53.820Z,99245.84
2023-03-31T14:34:13.285Z,99246.00
2023-03-31T14:37:21.251Z,99236.25
2023-03-31T14:40:25.577Z,99234.44
2023-03-31T14:43:30.728Z,99240.81
2023-03-31T14:46:40.067Z,99234.94
2023-03-31T14:49:43.186Z,99239.13
2023-03-31T14:52:49.080Z,99236.06
2023-03-31T14:55:58.689Z,99232.09
2023-03-31T14:59:03.043Z,99232.81
2023-03-31T15:02:12.161Z,99221.28
2023-03-31T15:05:26.193Z,99229.50
2023-03-31T15:08:30.906Z,99235.59
2023-03-31T15:11:33.948Z,99226.75
2023-03-31T15:14:41.659Z,99226.75
2023-03-31T15:17:48.490Z,99229.38
2023-03-31T15:20:51.513Z,99223.28
2023-03-31T15:23:56.482Z,99224.59
2023-03-31T15:27:04.335Z,99223.75
2023-03-31T15:30:09.094Z,99224.44
2023-03-31T15:33:21.092Z,99225.94
2023-03-31T15:36:24.263Z,99227.44
2023-03-31T15:39:29.557Z,99221.22
2023-03-31T15:42:33.760Z,99224.63
2023-03-31T15:45:46.124Z,99227.84
2023-03-31T15:48:55.101Z,99228.41
2023-03-31T15:52:00.493Z,99216.63
2023-03-31T15:55:24.065Z,99216.75
2023-03-31T15:58:47.635Z,99218.59
2023-03-31T16:01:51.606Z,99216.66
2023-03-31T16:04:59.389Z,99213.34
2023-03-31T16:08:03.418Z,99208.56
2023-03-31T16:11:11.035Z,99216.97
2023-03-31T16:14:20.078Z,99215.28
2023-03-31T16:17:28.169Z,99209.69
2023-03-31T16:20:37.325Z,99203.88
2023-03-31T16:23:44.334Z,99213.75
2023-03-31T16:26:47.766Z,99212.47
2023-03-31T16:29:50.526Z,99207.94
2023-03-31T16:33:02.304Z,99211.25
2023-03-31T16:36:08.890Z,99212.06
2023-03-31T16:39:11.752Z,99209.31
2023-03-31T16:42:14.493Z,99218.94
2023-03-31T16:45:17.494Z,99210.19
2023-03-31T16:48:22.642Z,99220.28
2023-03-31T16:51:27.002Z,99215.50
2023-03-31T16:54:29.677Z,99213.19
2023-03-31T16:57:32.663Z,99219.56
2023-03-31T17:00:36.909Z,99214.06
2023-03-31T17:03:41.719Z,99220.47
2023-03-31T17:06:46.568Z,99217.19
2023-03-31T17:09:49.360Z,99220.25
2023-03-31T17:12:52.310Z,99214.53
2023-03-31T17:16:01.360Z,99220.63
2023-03-31T17:19:18.430Z,99214.31
2023-03-31T17:22:22.727Z,99221.44
2023-03-31T17:25:25.599Z,99225.91
2023-03-31T17:28:28.761Z,99221.75
2023-03-31T17:31:31.852Z,99227.69
2023-03-31T17:34:34.897Z,99231.25
2023-03-31T17:37:39.090Z,99225.75
2023-03-31T17:40:43.120Z,99223.53
2023-03-31T17:43:46.806Z,99222.41
2023-03-31T17:46:49.619Z,99228.19
2023-03-31T17:49:52.376Z,99227.97
2023-03-31T17:52:58.470Z,99226.84
2023-03-31T17:56:01.377Z,99225.00
2023-03-31T17:59:04.563Z,99232.13
2023-03-31T18:02:08.215Z,99231.31
2023-03-31T18:05:11.269Z,99232.63
2023-03-31T18:08:16.019Z,99229.88
2023-03-31T18:11:18.770Z,99233.28
2023-03-31T18:14:22.324Z,99235.75
2023-03-31T18:17:25.187Z,99225.88
2023-03-31T18:20:28.558Z,99222.56
2023-03-31T18:23:33.849Z,99224.69
2023-03-31T18:26:36.547Z,99228.03
2023-03-31T18:29:39.898Z,99230.25
2023-03-31T18:32:43.544Z,99233.91
2023-03-31T18:35:48.406Z,99229.31
2023-03-31T18:38:53.350Z,99227.75
2023-03-31T18:41:56.168Z,99233.22
2023-03-31T18:44:59.052Z,99227.06
2023-03-31T18:48:02.491Z,99235.84
2023-03-31T18:51:05.990Z,99228.19
2023-03-31T18:54:10.353Z,99237.31
2023-03-31T18:57:13.200Z,99239.22
2023-03-31T19:00:17.226Z,99242.50
2023-03-31T19:03:20.351Z,99243.97
2023-03-31T19:06:23.576Z,99252.19
2023-03-31T19:09:27.991Z,99248.13
2023-03-31T19:12:30.785Z,99249.09
2023-03-31T19:15:33.894Z,99247.91
2023-03-31T19:18:37.470Z,99251.09
2023-03-31T19:21:41.350Z,99248.63
2023-03-31T19:24:46.142Z,99254.66
2023-03-31T19:27:49.486Z,99252.44
2023-03-31T19:30:54.266Z,99252.34
2023-03-31T19:33:58.515Z,99254.59
2023-03-31T19:37:02.236Z,99240.88
2023-03-31T19:40:07.757Z,99247.97
2023-03-31T19:43:19.304Z,99258.66
2023-03-31T19:46:22.322Z,99249.63
2023-03-31T19:49:25.342Z,99245.75
2023-03-31T19:52:29.683Z,99249.09
2023-03-31T19:55:37.465Z,99251.84
2023-03-31T19:58:40.286Z,99238.34
2023-03-31T20:01:43.245Z,99243.69
2023-03-31T20:04:46.155Z,99236.78
2023-03-31T20:07:49.053Z,99234.19
2023-03-31T20:10:53.391Z,99241.38
2023-03-31T20:13:57.185Z,99243.31
2023-03-31T20:17:01.229Z,99246.28
2023-03-31T20:20:04.084Z,99248.19
2023-03-31T20:23:07.042Z,99233.31
2023-03-31T20:26:14.480Z,99235.53
2023-03-31T20:29:17.672Z,99235.03
2023-03-31T20:32:20.633Z,99231.97
2023-03-31T20:35:23.398Z,99233.38
2023-03-31T20:38:26.282Z,99232.56
2023-03-31T20:41:31.958Z,99232.28
2023-03-31T20:44:34.952Z,99241.03
2023-03-31T20:47:37.867Z,99241.03
2023-03-31T20:50:41.837Z,99243.47
2023-03-31T20:53:46.782Z,99237.97
2023-03-31T20:56:51.928Z,99242.97
2023-03-31T20:59:54.743Z,99245.41
2023-03-31T21:02:57.641Z,99242.97
2023-03-31T21:06:04.003Z,99242.97
2023-03-31T21:09:07.204Z,99236.94
2023-03-31T21:12:12.656Z,99244.88
2023-03-31T21:15:15.650Z,99256.44
2023-03-31T21:18:18.534Z,99257.03
2023-03-31T21:21:24.274Z,99267.72
2023-03-31T21:24:27.812Z,99259.19
2023-03-31T21:27:32.148Z,99270.44
2023-03-31T21:30:34.867Z,99264.91
2023-03-31T21:33:39.148Z,99269.94
2023-03-31T21:36:43.132Z,99262.31
2023-03-31T21:39:46.527Z,99257.94
2023-03-31T21:42:50.752Z,99268.13
2023-03-31T21:45:58.414Z,99268.72
2023-03-31T21:49:01.504Z,99269.03
2023-03-31T21:52:05.216Z,99260.50
2023-03-31T21:55:11.849Z,99272.06
2023-03-31T21:58:16.732Z,99274.22
2023-03-31T22:01:20.446Z,99274.50
2023-03-31T22:04:23.367Z,99269.38
2023-03-31T22:07:26.260Z,99280.94
2023-03-31T22:10:29.181Z,99265.59
2023-03-31T22:13:33.962Z,99274.03
2023-03-31T22:16:36.962Z,99271.06
2023-03-31T22:19:39.814Z,99274.63
2023-03-31T22:22:42.778Z,99274.13
2023-03-31T22:25:45.713Z,99271.38
2023-03-31T22:28:50.621Z,99270.78
2023-03-31T22:31:53.557Z,99277.38
2023-03-31T22:34:56.414Z,99285.00
2023-03-31T22:37:59.254Z,99283.09
2023-03-31T22:41:02.101Z,99290.78
2023-03-31T22:44:06.391Z,99287.81
2023-03-31T22:47:09.349Z,99283.97
2023-03-31T22:50:12.667Z,99291.97
2023-03-31T22:53:16.827Z,99296.13
2023-03-31T22:56:21.227Z,99294.19
2023-03-31T22:59:25.651Z,99296.66
2023-03-31T23:02:28.394Z,99298.06
2023-03-31T23:05:31.671Z,99303.00
2023-03-31T23:08:35.823Z,99304.34
2023-03-31T23:11:38.944Z,99305.22
2023-03-31T23:14:43.224Z,99302.47
2023-03-31T23:17:46.042Z,99308.53
2023-03-31T23:20:49.113Z,99309.66
2023-03-31T23:23:53.833Z,99305.78
2023-03-31T23:26:56.812Z,99310.47
2023-03-31T23:30:01.191Z,99304.16
2023-03-31T23:33:03.944Z,99296.75
2023-03-31T23:36:07.973Z,99313.22
2023-03-31T23:39:10.918Z,99302.53
2023-03-31T23:42:16.145Z,99295.94
2023-03-31T23:45:20.452Z,99305.78
2023-03-31T23:48:23.369Z,99301.44
2023-03-31T23:51:26.668Z,99296.25
2023-03-31T23:54:29.967Z,99304.50
2023-03-31T23:57:32.730Z,99308.91
